Time;durP1;ratioP1;P1;durP2;ratioP2;P2;SDS_P1;SDS_P2;PMS_P1;PMS_P2;Temp;Humidity;BMP_temperature;BMP_pressure;BME280_temperature;BME280_humidity;BME280_pressure;Samples;Min_cycle;Max_cycle;Signal;HPM_P1;HPM_P2
2023/04/15 00:01:44;;;;;;;20.25;11.65;;;;;;;;;;4929015;28;20094;-75
2023/04/15 00:04:11;;;;;;;20.52;11.02;;;;;;;;;;4929229;29;20108;-75
2023/04/15 00:06:38;;;;;;;18.77;10.43;;;;;;;;;;4928033;29;20076;-76
2023/04/15 00:09:05;;;;;;;20.23;10.85;;;;;;;;;;4927275;29;20516;-76
2023/04/15 00:11:31;;;;;;;21.63;10.30;;;;;;;;;;4927348;29;20046;-75
2023/04/15 00:13:59;;;;;;;17.27;10.02;;;;;;;;;;4928037;29;20047;-75
2023/04/15 00:16:27;;;;;;;17.88;9.90;;;;;;;;;;4928942;29;20102;-76
2023/04/15 00:18:53;;;;;;;19.80;10.75;;;;;;;;;;4929441;29;20078;-75
2023/04/15 00:21:20;;;;;;;18.83;10.27;;;;;;;;;;4928687;29;20051;-77
2023/04/15 00:23:51;;;;;;;18.67;9.90;;;;;;;;;;4928607;28;20082;-78
2023/04/15 00:26:18;;;;;;;19.40;10.23;;;;;;;;;;4911515;29;20456;-77
2023/04/15 00:28:47;;;;;;;17.88;9.50;;;;;;;;;;4927701;29;20579;-76
2023/04/15 00:31:14;;;;;;;21.88;9.98;;;;;;;;;;4928098;29;20575;-79
2023/04/15 00:33:41;;;;;;;19.65;10.23;;;;;;;;;;4928365;28;20066;-77
2023/04/15 00:36:07;;;;;;;20.33;10.68;;;;;;;;;;4912406;29;20056;-75
2023/04/15 00:38:37;;;;;;;18.80;10.45;;;;;;;;;;4927428;29;20050;-75
2023/04/15 00:41:03;;;;;;;16.98;9.52;;;;;;;;;;4926693;29;20082;-75
2023/04/15 00:43:30;;;;;;;18.70;10.10;;;;;;;;;;4926392;29;20039;-76
2023/04/15 00:45:57;;;;;;;16.48;9.00;;;;;;;;;;4927907;29;20036;-77
2023/04/15 00:48:25;;;;;;;15.13;8.45;;;;;;;;;;4929247;28;20715;-77
2023/04/15 00:50:53;;;;;;;15.10;8.80;;;;;;;;;;4912487;29;20114;-77
2023/04/15 00:53:19;;;;;;;15.25;8.27;;;;;;;;;;4926684;29;20119;-77
2023/04/15 00:55:46;;;;;;;13.82;7.75;;;;;;;;;;4927935;29;20082;-77
2023/04/15 00:58:13;;;;;;;13.77;7.80;;;;;;;;;;4927191;29;20047;-78
2023/04/15 01:00:41;;;;;;;13.90;7.60;;;;;;;;;;4929531;28;20043;-76
2023/04/15 01:03:08;;;;;;;14.77;7.72;;;;;;;;;;4925443;29;20135;-76
2023/04/15 01:05:37;;;;;;;12.52;7.28;;;;;;;;;;4929465;29;20381;-76
2023/04/15 01:08:04;;;;;;;13.82;7.68;;;;;;;;;;4929293;28;20047;-76
2023/04/15 01:10:32;;;;;;;13.68;7.65;;;;;;;;;;4928623;28;20320;-76
2023/04/15 01:12:58;;;;;;;15.82;7.55;;;;;;;;;;4928136;28;20051;-76
2023/04/15 01:15:26;;;;;;;15.60;7.32;;;;;;;;;;4929378;28;20094;-76
2023/04/15 01:17:53;;;;;;;14.32;8.05;;;;;;;;;;4928617;29;20052;-76
2023/04/15 01:20:20;;;;;;;12.88;7.35;;;;;;;;;;4929146;29;20531;-76
2023/04/15 01:22:48;;;;;;;11.98;6.82;;;;;;;;;;4929023;29;20083;-78
2023/04/15 01:25:18;;;;;;;14.00;7.00;;;;;;;;;;4931081;28;20047;-78
2023/04/15 01:27:45;;;;;;;14.13;7.25;;;;;;;;;;4931549;29;20089;-77
2023/04/15 01:30:11;;;;;;;14.00;7.32;;;;;;;;;;4928811;29;20094;-77
2023/04/15 01:32:38;;;;;;;12.07;6.68;;;;;;;;;;4929475;29;20499;-77
2023/04/15 01:35:05;;;;;;;12.57;6.50;;;;;;;;;;4929897;29;20071;-77
2023/04/15 01:37:31;;;;;;;13.02;6.45;;;;;;;;;;4928293;29;20074;-78
2023/04/15 01:39:58;;;;;;;12.65;6.68;;;;;;;;;;4927313;29;20526;-78
2023/04/15 01:42:26;;;;;;;13.18;7.10;;;;;;;;;;4926875;29;20047;-76
2023/04/15 01:44:53;;;;;;;12.25;6.90;;;;;;;;;;4930871;29;20051;-78
2023/04/15 01:47:20;;;;;;;12.02;7.07;;;;;;;;;;4931701;29;20052;-78
2023/04/15 01:49:47;;;;;;;12.63;7.15;;;;;;;;;;4931623;29;20044;-77
2023/04/15 01:52:14;;;;;;;12.93;7.13;;;;;;;;;;4931061;29;20162;-78
2023/04/15 01:54:41;;;;;;;13.30;7.28;;;;;;;;;;4931610;29;20063;-77
2023/04/15 01:57:08;;;;;;;14.20;7.68;;;;;;;;;;4929620;29;20099;-78
2023/04/15 01:59:35;;;;;;;14.40;8.13;;;;;;;;;;4929153;29;20446;-77
2023/04/15 02:02:03;;;;;;;14.25;7.88;;;;;;;;;;4930791;29;20563;-77
2023/04/15 02:04:29;;;;;;;14.88;7.35;;;;;;;;;;4932648;29;20051;-78
2023/04/15 02:06:58;;;;;;;13.60;7.80;;;;;;;;;;4932813;29;20048;-77
2023/04/15 02:09:25;;;;;;;14.60;8.48;;;;;;;;;;4931049;29;20131;-77
2023/04/15 02:11:53;;;;;;;16.33;9.50;;;;;;;;;;4930031;29;20059;-78
2023/04/15 02:14:19;;;;;;;17.63;9.80;;;;;;;;;;4931520;29;20781;-77
2023/04/15 02:16:46;;;;;;;18.30;10.18;;;;;;;;;;4916482;29;20048;-77
2023/04/15 02:19:14;;;;;;;18.95;10.60;;;;;;;;;;4932170;29;20047;-77
2023/04/15 02:21:41;;;;;;;20.00;10.65;;;;;;;;;;4933996;29;20048;-77
2023/04/15 02:24:07;;;;;;;19.45;11.25;;;;;;;;;;4931955;29;20058;-77
2023/04/15 02:26:34;;;;;;;22.60;11.63;;;;;;;;;;4932873;28;20103;-77
2023/04/15 02:29:01;;;;;;;23.58;12.43;;;;;;;;;;4935759;29;20147;-77
2023/04/15 02:31:27;;;;;;;25.15;13.13;;;;;;;;;;4931232;28;20119;-77
2023/04/15 02:33:54;;;;;;;24.45;13.48;;;;;;;;;;4931460;28;20114;-77
2023/04/15 02:36:22;;;;;;;24.95;13.00;;;;;;;;;;4931548;28;20142;-77
2023/04/15 02:38:49;;;;;;;25.85;14.02;;;;;;;;;;4931786;28;20047;-77
2023/04/15 02:41:27;;;;;;;28.25;14.43;;;;;;;;;;4929809;28;20039;-77
2023/04/15 02:43:53;;;;;;;23.30;12.95;;;;;;;;;;4931852;28;20063;-77
2023/04/15 02:46:21;;;;;;;26.65;13.63;;;;;;;;;;4915336;28;20127;-77
2023/04/15 02:48:49;;;;;;;25.65;14.18;;;;;;;;;;4930950;28;20071;-77
2023/04/15 02:51:18;;;;;;;28.17;13.00;;;;;;;;;;4930816;28;20135;-77
2023/04/15 02:53:45;;;;;;;25.30;12.63;;;;;;;;;;4931276;28;20051;-77
2023/04/15 02:56:14;;;;;;;25.00;12.35;;;;;;;;;;4929889;28;20130;-78
2023/04/15 02:58:41;;;;;;;25.92;12.05;;;;;;;;;;4927675;28;20054;-77
2023/04/15 03:01:10;;;;;;;24.02;12.43;;;;;;;;;;4931705;28;20047;-77
2023/04/15 03:03:38;;;;;;;21.50;12.00;;;;;;;;;;4930254;28;20067;-79
2023/04/15 03:06:04;;;;;;;21.73;12.30;;;;;;;;;;4931706;29;20409;-77
2023/04/15 03:08:31;;;;;;;21.60;12.20;;;;;;;;;;4915271;28;20050;-77
2023/04/15 03:10:59;;;;;;;20.42;11.55;;;;;;;;;;4931380;28;23097;-77
2023/04/15 03:13:26;;;;;;;22.20;11.70;;;;;;;;;;4915495;28;20390;-76
2023/04/15 03:15:54;;;;;;;24.92;12.38;;;;;;;;;;4915001;28;20063;-76
2023/04/15 03:18:22;;;;;;;22.63;11.98;;;;;;;;;;4929833;28;20182;-75
2023/04/15 03:20:49;;;;;;;24.52;12.10;;;;;;;;;;4929976;28;20099;-76
2023/04/15 03:23:16;;;;;;;21.50;11.05;;;;;;;;;;4928285;28;20086;-76
2023/04/15 03:25:43;;;;;;;21.63;11.38;;;;;;;;;;4928525;28;20548;-76
2023/04/15 03:28:10;;;;;;;17.40;9.88;;;;;;;;;;4929297;28;20067;-77
2023/04/15 03:30:36;;;;;;;16.05;9.40;;;;;;;;;;4930036;29;20039;-76
2023/04/15 03:33:03;;;;;;;15.60;8.27;;;;;;;;;;4929089;28;20040;-76
2023/04/15 03:35:30;;;;;;;15.18;9.00;;;;;;;;;;4930126;28;20138;-75
2023/04/15 03:37:56;;;;;;;14.07;8.23;;;;;;;;;;4929246;28;20048;-77
2023/04/15 03:40:23;;;;;;;13.50;8.07;;;;;;;;;;4929501;28;20575;-78
2023/04/15 03:42:49;;;;;;;16.27;8.75;;;;;;;;;;4928488;28;20051;-77
2023/04/15 03:45:16;;;;;;;13.85;8.13;;;;;;;;;;4930176;28;20055;-77
2023/04/15 03:47:42;;;;;;;13.05;7.45;;;;;;;;;;4930827;28;20051;-77
2023/04/15 03:50:09;;;;;;;15.50;8.90;;;;;;;;;;4930377;28;20106;-77
2023/04/15 03:52:36;;;;;;;15.98;8.23;;;;;;;;;;4928173;28;20066;-78
2023/04/15 03:55:03;;;;;;;15.18;8.75;;;;;;;;;;4927968;28;20051;-77
2023/04/15 03:57:30;;;;;;;16.60;9.35;;;;;;;;;;4928488;28;20082;-77
2023/04/15 03:59:56;;;;;;;16.13;9.07;;;;;;;;;;4932340;28;20546;-76
2023/04/15 04:02:23;;;;;;;15.57;9.13;;;;;;;;;;4929961;28;20054;-76
2023/04/15 04:04:50;;;;;;;18.77;8.93;;;;;;;;;;4931067;28;20047;-77
2023/04/15 04:07:17;;;;;;;15.85;8.45;;;;;;;;;;4930990;28;20567;-75
2023/04/15 04:09:43;;;;;;;16.67;8.60;;;;;;;;;;4930135;28;20456;-77
2023/04/15 04:12:12;;;;;;;15.77;8.23;;;;;;;;;;4928241;29;20111;-77
2023/04/15 04:14:39;;;;;;;14.35;8.18;;;;;;;;;;4930478;28;20103;-77
2023/04/15 04:17:06;;;;;;;16.08;8.05;;;;;;;;;;4931438;28;20106;-77
2023/04/15 04:19:33;;;;;;;16.00;8.35;;;;;;;;;;4929111;28;20056;-76
2023/04/15 04:21:59;;;;;;;17.50;8.32;;;;;;;;;;4912779;28;20058;-77
2023/04/15 04:24:26;;;;;;;18.67;9.10;;;;;;;;;;4909787;29;20040;-76
2023/04/15 04:26:53;;;;;;;18.45;8.98;;;;;;;;;;4929798;28;20106;-77
2023/04/15 04:29:19;;;;;;;18.02;9.05;;;;;;;;;;4929852;29;20050;-77
2023/04/15 04:31:47;;;;;;;19.75;10.07;;;;;;;;;;4930378;29;20579;-76
2023/04/15 04:34:14;;;;;;;20.92;9.65;;;;;;;;;;4928808;29;20496;-76
2023/04/15 04:36:41;;;;;;;20.73;10.15;;;;;;;;;;4929722;29;20031;-76
2023/04/15 04:39:08;;;;;;;21.30;10.13;;;;;;;;;;4928980;28;20051;-76
2023/04/15 04:41:34;;;;;;;27.35;12.38;;;;;;;;;;4929949;28;20043;-77
2023/04/15 04:44:01;;;;;;;27.83;12.57;;;;;;;;;;4934237;28;20123;-75
2023/04/15 04:46:27;;;;;;;28.80;13.68;;;;;;;;;;4937376;28;20062;-75
2023/04/15 04:48:54;;;;;;;33.10;13.82;;;;;;;;;;4914732;28;20138;-75
2023/04/15 04:51:21;;;;;;;31.42;13.48;;;;;;;;;;4939200;28;20474;-77
2023/04/15 04:53:48;;;;;;;30.05;12.63;;;;;;;;;;4931255;28;20063;-77
2023/04/15 04:56:14;;;;;;;29.45;12.38;;;;;;;;;;4932162;29;20126;-75
2023/04/15 04:58:41;;;;;;;34.38;11.98;;;;;;;;;;4935416;28;20457;-75
2023/04/15 05:01:08;;;;;;;25.77;11.20;;;;;;;;;;4945397;28;20131;-76
2023/04/15 05:03:35;;;;;;;26.63;10.88;;;;;;;;;;4947828;28;20071;-76
2023/04/15 05:06:04;;;;;;;22.25;9.07;;;;;;;;;;4947394;28;20051;-77
2023/04/15 05:08:31;;;;;;;21.05;9.35;;;;;;;;;;4946719;28;20047;-76
2023/04/15 05:10:58;;;;;;;20.23;8.38;;;;;;;;;;4946316;28;20511;-76
2023/04/15 05:13:25;;;;;;;18.08;8.10;;;;;;;;;;4945913;28;20641;-77
2023/04/15 05:15:51;;;;;;;17.50;8.13;;;;;;;;;;4948789;28;20102;-77
2023/04/15 05:18:18;;;;;;;17.92;8.02;;;;;;;;;;4949970;28;20054;-77
2023/04/15 05:20:45;;;;;;;16.40;7.45;;;;;;;;;;4948068;28;20063;-75
2023/04/15 05:23:11;;;;;;;17.02;7.35;;;;;;;;;;4932810;28;20052;-77
2023/04/15 05:25:38;;;;;;;13.85;6.47;;;;;;;;;;4933686;28;20047;-76
2023/04/15 05:28:04;;;;;;;16.20;6.80;;;;;;;;;;4935553;28;20061;-76
2023/04/15 05:30:31;;;;;;;16.20;6.60;;;;;;;;;;4937251;28;20179;-79
2023/04/15 05:32:57;;;;;;;16.45;6.80;;;;;;;;;;4941989;29;20051;-79
2023/04/15 05:35:24;;;;;;;15.27;6.00;;;;;;;;;;4940703;28;20047;-78
2023/04/15 05:37:51;;;;;;;13.68;6.70;;;;;;;;;;4934623;29;20052;-74
2023/04/15 05:40:17;;;;;;;14.02;6.53;;;;;;;;;;4931913;29;20762;-76
2023/04/15 05:42:44;;;;;;;14.30;6.45;;;;;;;;;;4928575;29;20139;-75
2023/04/15 05:45:11;;;;;;;12.80;6.28;;;;;;;;;;4928541;29;20055;-75
2023/04/15 05:47:37;;;;;;;13.65;6.75;;;;;;;;;;4935879;29;20094;-75
2023/04/15 05:50:05;;;;;;;11.93;5.88;;;;;;;;;;4934387;29;20043;-75
2023/04/15 05:52:31;;;;;;;10.65;5.10;;;;;;;;;;4928724;29;20082;-76
2023/04/15 05:54:58;;;;;;;10.35;5.32;;;;;;;;;;4946755;28;20138;-77
2023/04/15 05:57:25;;;;;;;10.35;5.30;;;;;;;;;;4935209;28;20143;-76
2023/04/15 05:59:52;;;;;;;11.30;4.97;;;;;;;;;;4924754;29;20063;-77
2023/04/15 06:02:19;;;;;;;8.63;4.20;;;;;;;;;;4926620;28;20071;-75
2023/04/15 06:04:46;;;;;;;9.32;4.43;;;;;;;;;;4929609;29;20535;-77
2023/04/15 06:07:12;;;;;;;8.50;4.28;;;;;;;;;;4929312;28;20142;-78
2023/04/15 06:09:39;;;;;;;8.18;4.05;;;;;;;;;;4946154;28;20130;-78
2023/04/15 06:12:10;;;;;;;10.63;4.38;;;;;;;;;;4951547;28;20066;-78
2023/04/15 06:14:38;;;;;;;6.93;3.88;;;;;;;;;;4933681;29;20047;-77
2023/04/15 06:17:05;;;;;;;8.75;4.38;;;;;;;;;;4936004;28;20436;-78
2023/04/15 06:19:33;;;;;;;6.93;3.33;;;;;;;;;;4928333;29;20051;-77
2023/04/15 06:22:00;;;;;;;6.32;3.50;;;;;;;;;;4932310;29;20607;-78
2023/04/15 06:24:27;;;;;;;6.82;3.25;;;;;;;;;;4932725;28;20051;-78
2023/04/15 06:26:54;;;;;;;6.47;3.10;;;;;;;;;;4928532;28;20051;-77
2023/04/15 06:29:20;;;;;;;7.43;3.10;;;;;;;;;;4927876;29;20563;-77
2023/04/15 06:31:48;;;;;;;5.68;2.80;;;;;;;;;;4927308;29;20039;-76
2023/04/15 06:34:14;;;;;;;4.78;2.75;;;;;;;;;;4938767;28;20051;-78
2023/04/15 06:36:41;;;;;;;5.07;2.75;;;;;;;;;;4948550;28;20047;-78
2023/04/15 06:39:07;;;;;;;4.57;2.40;;;;;;;;;;4929296;28;20267;-78
2023/04/15 06:41:34;;;;;;;5.05;2.75;;;;;;;;;;4925885;28;20127;-77
2023/04/15 06:44:01;;;;;;;5.20;2.45;;;;;;;;;;4936443;29;20386;-78
2023/04/15 06:46:28;;;;;;;5.57;2.50;;;;;;;;;;4927886;29;20051;-78
2023/04/15 06:48:55;;;;;;;4.13;2.63;;;;;;;;;;4934539;28;20556;-78
2023/04/15 06:51:22;;;;;;;7.80;3.42;;;;;;;;;;4932110;28;20154;-75
2023/04/15 06:53:52;;;;;;;5.43;3.22;;;;;;;;;;4927545;28;20062;-78
2023/04/15 06:56:18;;;;;;;6.60;3.75;;;;;;;;;;4926627;29;20043;-78
2023/04/15 06:58:45;;;;;;;6.60;3.72;;;;;;;;;;4928266;28;20062;-77
2023/04/15 07:01:12;;;;;;;7.13;4.20;;;;;;;;;;4908316;29;20079;-78
2023/04/15 07:03:40;;;;;;;7.55;3.50;;;;;;;;;;4919905;29;20134;-78
2023/04/15 07:06:08;;;;;;;5.32;3.40;;;;;;;;;;4926864;29;20163;-77
2023/04/15 07:08:35;;;;;;;5.80;3.65;;;;;;;;;;4924301;29;20051;-78
2023/04/15 07:11:02;;;;;;;6.45;3.60;;;;;;;;;;4925292;29;20044;-75
2023/04/15 07:13:30;;;;;;;5.97;3.65;;;;;;;;;;4926174;28;20135;-77
2023/04/15 07:15:57;;;;;;;6.15;3.50;;;;;;;;;;4925720;29;20075;-79
2023/04/15 07:18:24;;;;;;;7.78;3.90;;;;;;;;;;4927142;28;20066;-78
2023/04/15 07:20:51;;;;;;;9.05;4.10;;;;;;;;;;4926657;29;20052;-76
2023/04/15 07:23:17;;;;;;;8.00;4.28;;;;;;;;;;4922604;28;20051;-75
2023/04/15 07:25:44;;;;;;;6.80;3.80;;;;;;;;;;4925412;28;20058;-77
2023/04/15 07:28:10;;;;;;;9.25;4.25;;;;;;;;;;4934243;28;20058;-78
2023/04/15 07:30:37;;;;;;;6.80;3.92;;;;;;;;;;4934517;28;20054;-77
2023/04/15 07:33:04;;;;;;;11.00;4.97;;;;;;;;;;4908887;29;20047;-75
2023/04/15 07:35:32;;;;;;;7.43;4.20;;;;;;;;;;4938507;29;20050;-76
2023/04/15 07:37:58;;;;;;;6.97;4.05;;;;;;;;;;4926574;28;20143;-75
2023/04/15 07:40:27;;;;;;;5.22;3.35;;;;;;;;;;4925873;29;20047;-77
2023/04/15 07:42:56;;;;;;;5.28;3.60;;;;;;;;;;4931549;28;20078;-77
2023/04/15 07:45:22;;;;;;;5.78;3.80;;;;;;;;;;4926285;29;20134;-76
2023/04/15 07:47:50;;;;;;;5.25;3.50;;;;;;;;;;4927759;29;20047;-77
2023/04/15 07:50:18;;;;;;;4.95;3.20;;;;;;;;;;4926129;28;20178;-77
2023/04/15 07:52:45;;;;;;;4.85;3.17;;;;;;;;;;4924256;29;20052;-77
2023/04/15 07:55:11;;;;;;;4.35;2.85;;;;;;;;;;4936520;28;20048;-76
2023/04/15 07:57:40;;;;;;;5.40;3.22;;;;;;;;;;4931796;28;20081;-75
2023/04/15 08:00:07;;;;;;;3.85;3.10;;;;;;;;;;4924837;29;20048;-78
2023/04/15 08:02:41;;;;;;;4.53;2.88;;;;;;;;;;4923751;28;20051;-77
2023/04/15 08:05:09;;;;;;;4.78;3.35;;;;;;;;;;4939257;28;20067;-76
2023/04/15 08:07:37;;;;;;;5.07;3.30;;;;;;;;;;4941322;28;20055;-75
2023/04/15 08:10:03;;;;;;;5.07;3.13;;;;;;;;;;4927290;28;20563;-77
2023/04/15 08:12:30;;;;;;;5.30;3.45;;;;;;;;;;4926814;29;20068;-76
2023/04/15 08:14:57;;;;;;;5.30;3.28;;;;;;;;;;4925483;29;20056;-77
2023/04/15 08:17:23;;;;;;;5.18;3.42;;;;;;;;;;4928547;29;20417;-77
2023/04/15 08:19:50;;;;;;;5.18;3.17;;;;;;;;;;4932949;28;20233;-77
2023/04/15 08:22:16;;;;;;;4.95;2.90;;;;;;;;;;4908425;28;20054;-75
2023/04/15 08:24:45;;;;;;;5.57;3.05;;;;;;;;;;4923908;28;20071;-75
2023/04/15 08:27:12;;;;;;;4.22;2.83;;;;;;;;;;4924982;28;20055;-76
2023/04/15 08:29:39;;;;;;;4.20;3.13;;;;;;;;;;4933016;28;20043;-78
2023/04/15 08:32:06;;;;;;;4.80;3.08;;;;;;;;;;4944882;28;20071;-78
2023/04/15 08:34:33;;;;;;;3.50;2.50;;;;;;;;;;4927715;28;20040;-78
2023/04/15 08:37:00;;;;;;;3.90;2.80;;;;;;;;;;4927404;29;20052;-77
2023/04/15 08:39:27;;;;;;;4.32;2.85;;;;;;;;;;4925807;28;20393;-76
2023/04/15 08:41:53;;;;;;;4.93;3.25;;;;;;;;;;4925764;29;20095;-76
2023/04/15 08:44:22;;;;;;;5.90;3.30;;;;;;;;;;4939018;28;20031;-77
2023/04/15 08:46:50;;;;;;;4.13;3.15;;;;;;;;;;4962539;28;20058;-75
2023/04/15 08:49:18;;;;;;;5.35;3.30;;;;;;;;;;4926545;29;20134;-76
2023/04/15 08:51:44;;;;;;;4.40;3.28;;;;;;;;;;4925992;29;20166;-76
2023/04/15 08:54:11;;;;;;;390.05;23.20;;;;;;;;;;4923420;29;20048;-75
2023/04/15 08:56:38;;;;;;;262.40;14.77;;;;;;;;;;4923456;29;20087;-75
2023/04/15 08:59:06;;;;;;;14.27;3.55;;;;;;;;;;4924089;29;20047;-78
2023/04/15 09:01:33;;;;;;;4.63;3.50;;;;;;;;;;4923797;29;20062;-77
2023/04/15 09:04:01;;;;;;;5.22;3.60;;;;;;;;;;4924465;28;20060;-76
2023/04/15 09:06:28;;;;;;;5.47;3.28;;;;;;;;;;4938481;28;20073;-77
2023/04/15 09:08:56;;;;;;;5.18;3.22;;;;;;;;;;4914195;29;20051;-77
2023/04/15 09:11:23;;;;;;;3.78;2.38;;;;;;;;;;4941268;28;20098;-75
2023/04/15 09:13:50;;;;;;;4.03;2.40;;;;;;;;;;4932943;28;20472;-77
2023/04/15 09:16:17;;;;;;;3.70;2.28;;;;;;;;;;4923470;29;20047;-75
2023/04/15 09:18:44;;;;;;;3.85;2.40;;;;;;;;;;4926987;29;20063;-76
2023/04/15 09:21:12;;;;;;;3.90;2.10;;;;;;;;;;4925631;28;20052;-76
2023/04/15 09:23:41;;;;;;;4.70;2.40;;;;;;;;;;4907435;29;20059;-74
2023/04/15 09:26:07;;;;;;;6.22;2.70;;;;;;;;;;4924529;29;20055;-74
2023/04/15 09:28:40;;;;;;;13.25;3.13;;;;;;;;;;4922792;28;20484;-78
2023/04/15 09:31:07;;;;;;;4.43;2.92;;;;;;;;;;4923479;29;20052;-75
2023/04/15 09:33:34;;;;;;;19.50;3.85;;;;;;;;;;4924773;28;20052;-75
2023/04/15 09:36:03;;;;;;;7.75;2.90;;;;;;;;;;4916873;28;20084;-75
2023/04/15 09:38:31;;;;;;;4.68;2.50;;;;;;;;;;4924381;28;20127;-76
2023/04/15 09:40:58;;;;;;;6.97;2.63;;;;;;;;;;4923805;28;20133;-77
2023/04/15 09:43:39;;;;;;;4.53;2.90;;;;;;;;;;4923180;28;20055;-77
2023/04/15 09:46:07;;;;;;;3.08;2.17;;;;;;;;;;4932130;28;20534;-78
2023/04/15 09:48:33;;;;;;;4.07;2.65;;;;;;;;;;4925594;29;20043;-77
2023/04/15 09:51:00;;;;;;;3.58;2.38;;;;;;;;;;4923833;29;20130;-77
2023/04/15 09:53:27;;;;;;;3.85;2.42;;;;;;;;;;4923024;28;20540;-77
2023/04/15 09:55:58;;;;;;;3.72;2.40;;;;;;;;;;4924879;29;20066;-77
2023/04/15 09:58:26;;;;;;;3.92;2.42;;;;;;;;;;4926221;28;20769;-77
2023/04/15 10:00:55;;;;;;;4.22;2.40;;;;;;;;;;4927672;28;20063;-77
2023/04/15 10:03:21;;;;;;;4.60;2.30;;;;;;;;;;4923381;28;20044;-78
2023/04/15 10:05:49;;;;;;;3.53;2.00;;;;;;;;;;4910498;29;20095;-78
2023/04/15 10:08:21;;;;;;;3.92;2.40;;;;;;;;;;4926501;29;20599;-77
2023/04/15 10:10:48;;;;;;;3.47;2.38;;;;;;;;;;4916636;29;20738;-77
2023/04/15 10:13:18;;;;;;;3.03;2.17;;;;;;;;;;4926832;28;20036;-77
2023/04/15 10:15:49;;;;;;;3.20;2.20;;;;;;;;;;4927884;28;20429;-77
2023/04/15 10:18:17;;;;;;;5.03;3.20;;;;;;;;;;4936125;28;20457;-76
2023/04/15 10:20:45;;;;;;;5.30;3.00;;;;;;;;;;4934857;28;20055;-77
2023/04/15 10:23:11;;;;;;;5.88;3.22;;;;;;;;;;4935796;28;20066;-77
2023/04/15 10:25:39;;;;;;;4.22;3.00;;;;;;;;;;4931914;28;20138;-76
2023/04/15 10:28:07;;;;;;;3.92;2.65;;;;;;;;;;4926154;28;20154;-74
2023/04/15 10:30:35;;;;;;;4.90;3.08;;;;;;;;;;4934070;28;20067;-76
2023/04/15 10:33:02;;;;;;;5.00;3.13;;;;;;;;;;4940365;28;20051;-76
2023/04/15 10:35:30;;;;;;;5.60;3.42;;;;;;;;;;4928207;29;20048;-76
2023/04/15 10:37:56;;;;;;;6.65;3.53;;;;;;;;;;4930883;29;20047;-75
2023/04/15 10:40:26;;;;;;;5.88;3.25;;;;;;;;;;4928606;28;20146;-79
2023/04/15 10:42:54;;;;;;;5.45;3.33;;;;;;;;;;4929717;29;20048;-75
2023/04/15 10:45:20;;;;;;;5.47;3.60;;;;;;;;;;4929331;29;20052;-77
2023/04/15 10:47:51;;;;;;;5.47;3.00;;;;;;;;;;4938204;28;20054;-76
2023/04/15 10:50:18;;;;;;;4.88;3.15;;;;;;;;;;4931848;28;20809;-76
2023/04/15 10:52:44;;;;;;;5.47;3.10;;;;;;;;;;4925908;29;20111;-77
2023/04/15 10:55:17;;;;;;;8.55;3.67;;;;;;;;;;4929668;28;20065;-77
2023/04/15 10:57:44;;;;;;;5.53;3.13;;;;;;;;;;4933443;29;20385;-75
2023/04/15 11:00:14;;;;;;;5.00;3.15;;;;;;;;;;4928873;28;20405;-75
2023/04/15 11:03:00;;;;;;;5.80;3.50;;;;;;;;;;4946176;28;20122;-75
2023/04/15 11:05:42;;;;;;;5.93;2.92;;;;;;;;;;4933029;28;20138;-77
2023/04/15 11:08:09;;;;;;;4.85;2.83;;;;;;;;;;4938619;28;20086;-77
2023/04/15 11:10:36;;;;;;;5.03;2.47;;;;;;;;;;4940360;28;20572;-76
2023/04/15 11:13:02;;;;;;;3.85;2.75;;;;;;;;;;4935352;28;20066;-77
2023/04/15 11:15:34;;;;;;;3.20;2.20;;;;;;;;;;4933055;28;20067;-76
2023/04/15 11:18:14;;;;;;;4.82;2.80;;;;;;;;;;4933998;28;20079;-76
2023/04/15 11:20:43;;;;;;;3.97;2.33;;;;;;;;;;4935469;28;20133;-77
2023/04/15 11:23:10;;;;;;;4.63;2.80;;;;;;;;;;4929912;28;20056;-76
2023/04/15 11:25:41;;;;;;;4.03;2.40;;;;;;;;;;4931703;28;20138;-77
2023/04/15 11:28:09;;;;;;;4.10;2.80;;;;;;;;;;4933067;28;20463;-76
2023/04/15 11:30:38;;;;;;;5.05;2.88;;;;;;;;;;4931626;28;20052;-76
2023/04/15 11:33:07;;;;;;;4.55;3.00;;;;;;;;;;4925652;29;20043;-76
2023/04/15 11:35:34;;;;;;;4.40;3.08;;;;;;;;;;4925630;29;20561;-77
2023/04/15 11:38:04;;;;;;;5.30;2.83;;;;;;;;;;4925861;29;20051;-77
2023/04/15 11:40:32;;;;;;;4.55;2.72;;;;;;;;;;4938252;28;20087;-77
2023/04/15 11:43:08;;;;;;;5.00;3.20;;;;;;;;;;4944245;28;20050;-76
2023/04/15 11:45:36;;;;;;;6.80;3.30;;;;;;;;;;4928447;29;20099;-77
2023/04/15 11:48:10;;;;;;;3.85;2.90;;;;;;;;;;4926643;29;20061;-77
2023/04/15 11:50:42;;;;;;;3.85;3.10;;;;;;;;;;4925202;29;20428;-76
2023/04/15 11:53:09;;;;;;;4.95;2.92;;;;;;;;;;4923196;29;20048;-76
2023/04/15 11:55:41;;;;;;;4.93;3.47;;;;;;;;;;4924955;29;20048;-77
2023/04/15 11:58:12;;;;;;;5.22;3.17;;;;;;;;;;4924388;28;20044;-77
2023/04/15 12:00:46;;;;;;;4.75;2.97;;;;;;;;;;4925781;29;20075;-77
2023/04/15 12:03:15;;;;;;;4.45;2.88;;;;;;;;;;4925082;29;20060;-78
2023/04/15 12:06:02;;;;;;;3.97;2.70;;;;;;;;;;4925345;28;20476;-76
2023/04/15 12:08:47;;;;;;;4.18;2.85;;;;;;;;;;4925298;29;20099;-77
2023/04/15 12:11:15;;;;;;;4.78;3.03;;;;;;;;;;4926043;28;20055;-77
2023/04/15 12:13:46;;;;;;;5.53;3.38;;;;;;;;;;4923278;28;20043;-77
2023/04/15 12:16:15;;;;;;;4.90;3.42;;;;;;;;;;4925283;29;20066;-77
2023/04/15 12:18:43;;;;;;;5.43;3.20;;;;;;;;;;4922280;29;20575;-77
2023/04/15 12:21:11;;;;;;;4.10;2.88;;;;;;;;;;4924061;28;20150;-77
2023/04/15 12:23:38;;;;;;;4.63;3.20;;;;;;;;;;4924035;28;20413;-76
2023/04/15 12:26:05;;;;;;;5.05;3.22;;;;;;;;;;4923303;29;20047;-77
2023/04/15 12:28:34;;;;;;;5.40;3.20;;;;;;;;;;4924812;29;20040;-77
2023/04/15 12:31:05;;;;;;;4.72;3.13;;;;;;;;;;4924406;29;20075;-76
2023/04/15 12:33:33;;;;;;;4.40;2.70;;;;;;;;;;4907853;29;20052;-76
2023/04/15 12:36:01;;;;;;;3.72;2.40;;;;;;;;;;4914892;29;20047;-77
2023/04/15 12:38:30;;;;;;;4.15;2.80;;;;;;;;;;4923076;29;20055;-77
2023/04/15 12:40:57;;;;;;;3.75;2.60;;;;;;;;;;4923220;28;20757;-77
2023/04/15 12:43:24;;;;;;;4.30;2.85;;;;;;;;;;4923890;29;20056;-77
2023/04/15 12:45:51;;;;;;;4.78;3.13;;;;;;;;;;4927572;28;20047;-77
2023/04/15 12:48:17;;;;;;;4.55;3.20;;;;;;;;;;4934452;28;20043;-77
2023/04/15 12:50:44;;;;;;;5.40;3.42;;;;;;;;;;4933689;28;20146;-77
2023/04/15 12:53:10;;;;;;;4.90;3.33;;;;;;;;;;4927071;28;20059;-77
2023/04/15 12:55:37;;;;;;;5.38;3.65;;;;;;;;;;4931771;28;20055;-77
2023/04/15 12:58:03;;;;;;;4.88;3.40;;;;;;;;;;4930914;29;20118;-75
2023/04/15 13:00:32;;;;;;;4.55;3.17;;;;;;;;;;4938267;28;20054;-75
2023/04/15 13:02:58;;;;;;;5.60;3.67;;;;;;;;;;4934222;28;20470;-74
2023/04/15 13:05:25;;;;;;;3.95;3.33;;;;;;;;;;4934456;28;20078;-78
2023/04/15 13:07:52;;;;;;;6.85;3.75;;;;;;;;;;4934780;28;20055;-78
2023/04/15 13:10:18;;;;;;;5.40;3.70;;;;;;;;;;4902051;29;20059;-78
2023/04/15 13:12:46;;;;;;;4.25;3.17;;;;;;;;;;4931102;28;20063;-78
2023/04/15 13:15:13;;;;;;;5.18;3.13;;;;;;;;;;4922221;29;20563;-77
2023/04/15 13:17:39;;;;;;;5.13;3.60;;;;;;;;;;4925058;29;20055;-78
2023/04/15 13:20:07;;;;;;;5.75;4.22;;;;;;;;;;4921942;29;20556;-77
2023/04/15 13:22:34;;;;;;;6.75;4.13;;;;;;;;;;4925042;28;20401;-77
2023/04/15 13:25:00;;;;;;;7.78;4.13;;;;;;;;;;4926825;28;21178;-78
2023/04/15 13:27:27;;;;;;;5.80;4.30;;;;;;;;;;4929678;28;20047;-78
2023/04/15 13:29:53;;;;;;;7.10;4.68;;;;;;;;;;4925478;28;20060;-77
2023/04/15 13:32:23;;;;;;;7.95;5.30;;;;;;;;;;4924974;29;20051;-77
2023/04/15 13:34:50;;;;;;;8.07;5.63;;;;;;;;;;4929459;28;20165;-76
2023/04/15 13:37:16;;;;;;;7.20;5.30;;;;;;;;;;4930086;28;20488;-77
2023/04/15 13:39:43;;;;;;;7.28;5.07;;;;;;;;;;4932067;28;20075;-76
2023/04/15 13:42:09;;;;;;;9.93;5.45;;;;;;;;;;4925682;29;20056;-77
2023/04/15 13:44:37;;;;;;;9.35;6.43;;;;;;;;;;4927457;29;20647;-77
2023/04/15 13:47:03;;;;;;;8.55;5.50;;;;;;;;;;4930299;28;20065;-75
2023/04/15 13:49:30;;;;;;;8.07;5.55;;;;;;;;;;4928570;28;20051;-73
2023/04/15 13:51:57;;;;;;;8.43;6.28;;;;;;;;;;4927957;29;20044;-77
2023/04/15 13:54:24;;;;;;;10.60;6.93;;;;;;;;;;4912449;29;20043;-78
2023/04/15 13:57:03;;;;;;;9.57;6.90;;;;;;;;;;4918043;29;20050;-74
2023/04/15 13:59:34;;;;;;;11.05;7.22;;;;;;;;;;4928390;29;20043;-77
2023/04/15 14:02:00;;;;;;;10.55;7.82;;;;;;;;;;4929245;29;20035;-77
2023/04/15 14:04:27;;;;;;;12.02;7.72;;;;;;;;;;4938446;28;20051;-77
2023/04/15 14:06:54;;;;;;;10.80;7.90;;;;;;;;;;4923984;28;20566;-75
2023/04/15 14:09:22;;;;;;;11.38;7.63;;;;;;;;;;4928794;29;20051;-75
2023/04/15 14:11:51;;;;;;;13.30;8.90;;;;;;;;;;4933714;28;20511;-76
2023/04/15 14:14:18;;;;;;;10.05;7.45;;;;;;;;;;4911392;29;20128;-77
2023/04/15 14:16:44;;;;;;;11.68;7.95;;;;;;;;;;4927319;29;20051;-77
2023/04/15 14:19:11;;;;;;;11.63;7.55;;;;;;;;;;4938730;29;20136;-77
2023/04/15 14:21:38;;;;;;;11.02;7.68;;;;;;;;;;4937774;28;20051;-77
2023/04/15 14:24:04;;;;;;;11.70;7.20;;;;;;;;;;4935413;28;20047;-76
2023/04/15 14:26:32;;;;;;;11.18;7.75;;;;;;;;;;4924249;28;20055;-76
2023/04/15 14:28:59;;;;;;;10.43;7.60;;;;;;;;;;4925640;28;20110;-74
2023/04/15 14:31:25;;;;;;;11.63;8.23;;;;;;;;;;4931015;28;20472;-76
2023/04/15 14:33:52;;;;;;;11.65;7.97;;;;;;;;;;4925270;28;20051;-74
2023/04/15 14:36:20;;;;;;;10.95;7.70;;;;;;;;;;4928120;28;20071;-76